sensor_id;sensor_type;location;lat;lon;timestamp;pressure;altitude;pressure_sealevel;temperature;humidity
48926;BME280;39838;59.938;30.642;2023-04-21T00:00:06;101267.66;;;5.34;61.84
48926;BME280;39838;59.938;30.642;2023-04-21T00:02:35;101272.97;;;5.38;61.58
48926;BME280;39838;59.938;30.642;2023-04-21T00:05:07;101265.25;;;5.38;61.45
48926;BME280;39838;59.938;30.642;2023-04-21T00:07:35;101260.09;;;5.38;61.53
48926;BME280;39838;59.938;30.642;2023-04-21T00:10:06;101264.25;;;5.35;61.91
48926;BME280;39838;59.938;30.642;2023-04-21T00:12:34;101265.91;;;5.33;62.35
48926;BME280;39838;59.938;30.642;2023-04-21T00:15:01;101258.91;;;5.29;62.93
48926;BME280;39838;59.938;30.642;2023-04-21T00:17:32;101257.97;;;5.27;62.73
48926;BME280;39838;59.938;30.642;2023-04-21T00:19:59;101259.59;;;5.23;62.79
48926;BME280;39838;59.938;30.642;2023-04-21T00:22:27;101269.84;;;5.22;62.97
48926;BME280;39838;59.938;30.642;2023-04-21T00:24:54;101256.13;;;5.23;63.57
48926;BME280;39838;59.938;30.642;2023-04-21T00:27:22;101261.41;;;5.27;63.63
48926;BME280;39838;59.938;30.642;2023-04-21T00:29:49;101258.91;;;5.29;63.42
48926;BME280;39838;59.938;30.642;2023-04-21T00:32:16;101258.91;;;5.29;63.42
48926;BME280;39838;59.938;30.642;2023-04-21T00:34:44;101248.50;;;5.26;63.21
48926;BME280;39838;59.938;30.642;2023-04-21T00:37:11;101255.44;;;5.28;63.95
48926;BME280;39838;59.938;30.642;2023-04-21T00:39:39;101252.84;;;5.28;64.15
48926;BME280;39838;59.938;30.642;2023-04-21T00:42:06;101250.25;;;5.27;64.23
48926;BME280;39838;59.938;30.642;2023-04-21T00:44:34;101249.28;;;5.23;64.54
48926;BME280;39838;59.938;30.642;2023-04-21T00:47:02;101252.56;;;5.19;64.13
48926;BME280;39838;59.938;30.642;2023-04-21T00:49:29;101248.16;;;5.15;64.31
48926;BME280;39838;59.938;30.642;2023-04-21T00:51:57;101247.19;;;5.13;65.06
48926;BME280;39838;59.938;30.642;2023-04-21T00:54:24;101235.16;;;5.12;64.41
48926;BME280;39838;59.938;30.642;2023-04-21T00:56:51;101241.09;;;5.09;65.02
48926;BME280;39838;59.938;30.642;2023-04-21T00:59:19;101231.53;;;5.07;64.80
48926;BME280;39838;59.938;30.642;2023-04-21T01:01:48;101244.53;;;5.10;64.49
48926;BME280;39838;59.938;30.642;2023-04-21T01:04:17;101242.00;;;5.11;64.93
48926;BME280;39838;59.938;30.642;2023-04-21T01:06:44;101245.50;;;5.13;65.41
48926;BME280;39838;59.938;30.642;2023-04-21T01:09:11;101242.09;;;5.14;65.09
48926;BME280;39838;59.938;30.642;2023-04-21T01:11:39;101230.00;;;5.12;65.50
48926;BME280;39838;59.938;30.642;2023-04-21T01:14:07;101240.56;;;5.19;64.82
48926;BME280;39838;59.938;30.642;2023-04-21T01:16:34;101226.84;;;5.20;65.30
48926;BME280;39838;59.938;30.642;2023-04-21T01:19:02;101233.81;;;5.23;65.44
48926;BME280;39838;59.938;30.642;2023-04-21T01:21:37;101223.19;;;5.14;65.09
48926;BME280;39838;59.938;30.642;2023-04-21T01:24:06;101239.81;;;5.22;65.27
48926;BME280;39838;59.938;30.642;2023-04-21T01:26:33;101245.66;;;5.18;65.76
48926;BME280;39838;59.938;30.642;2023-04-21T01:29:01;101240.44;;;5.15;66.29
48926;BME280;39838;59.938;30.642;2023-04-21T01:31:28;101239.44;;;5.11;65.80
48926;BME280;39838;59.938;30.642;2023-04-21T01:33:55;101230.00;;;5.12;66.46
48926;BME280;39838;59.938;30.642;2023-04-21T01:36:22;101230.78;;;5.09;65.91
48926;BME280;39838;59.938;30.642;2023-04-21T01:38:51;101226.38;;;5.07;66.73
48926;BME280;39838;59.938;30.642;2023-04-21T01:41:18;101228.03;;;5.05;66.74
48926;BME280;39838;59.938;30.642;2023-04-21T01:43:45;101225.44;;;5.03;66.95
48926;BME280;39838;59.938;30.642;2023-04-21T01:46:12;101222.72;;;5.00;67.43
48926;BME280;39838;59.938;30.642;2023-04-21T01:48:40;101220.06;;;4.97;67.46
48926;BME280;39838;59.938;30.642;2023-04-21T01:51:07;101221.63;;;4.93;67.36
48926;BME280;39838;59.938;30.642;2023-04-21T01:53:34;101218.09;;;4.90;67.64
48926;BME280;39838;59.938;30.642;2023-04-21T01:56:03;101212.91;;;4.88;67.33
48926;BME280;39838;59.938;30.642;2023-04-21T01:58:30;101214.59;;;4.88;67.70
48926;BME280;39838;59.938;30.642;2023-04-21T02:00:57;101227.31;;;4.83;67.58
48926;BME280;39838;59.938;30.642;2023-04-21T02:03:24;101219.47;;;4.80;67.40
48926;BME280;39838;59.938;30.642;2023-04-21T02:05:52;101229.84;;;4.82;67.24
48926;BME280;39838;59.938;30.642;2023-04-21T02:08:19;101227.31;;;4.83;67.51
48926;BME280;39838;59.938;30.642;2023-04-21T02:10:46;101222.22;;;4.85;67.79
48926;BME280;39838;59.938;30.642;2023-04-21T02:13:15;101231.84;;;4.90;67.42
48926;BME280;39838;59.938;30.642;2023-04-21T02:15:42;101228.44;;;4.91;67.95
48926;BME280;39838;59.938;30.642;2023-04-21T02:18:09;101229.38;;;4.93;67.44
48926;BME280;39838;59.938;30.642;2023-04-21T02:20:38;101217.31;;;4.92;67.43
48926;BME280;39838;59.938;30.642;2023-04-21T02:23:05;101221.44;;;4.87;68.02
48926;BME280;39838;59.938;30.642;2023-04-21T02:25:32;101221.38;;;4.86;67.89
48926;BME280;39838;59.938;30.642;2023-04-21T02:27:59;101217.88;;;4.84;68.44
48926;BME280;39838;59.938;30.642;2023-04-21T02:30:28;101211.81;;;4.82;68.06
48926;BME280;39838;59.938;30.642;2023-04-21T02:32:55;101211.75;;;4.80;68.30
48926;BME280;39838;59.938;30.642;2023-04-21T02:35:22;101214.28;;;4.79;68.58
48926;BME280;39838;59.938;30.642;2023-04-21T02:37:49;101204.81;;;4.78;68.65
48926;BME280;39838;59.938;30.642;2023-04-21T02:40:17;101203.00;;;4.75;68.90
48926;BME280;39838;59.938;30.642;2023-04-21T02:42:44;101203.75;;;4.73;69.00
48926;BME280;39838;59.938;30.642;2023-04-21T02:45:11;101196.88;;;4.72;69.37
48926;BME280;39838;59.938;30.642;2023-04-21T02:47:39;101193.41;;;4.71;69.98
48926;BME280;39838;59.938;30.642;2023-04-21T02:50:07;101197.72;;;4.72;70.10
48926;BME280;39838;59.938;30.642;2023-04-21T02:52:35;101196.19;;;4.77;70.09
48926;BME280;39838;59.938;30.642;2023-04-21T02:55:03;101189.63;;;4.85;69.89
48926;BME280;39838;59.938;30.642;2023-04-21T02:57:30;101192.34;;;4.90;69.76
48926;BME280;39838;59.938;30.642;2023-04-21T02:59:58;101186.59;;;4.97;69.88
48926;BME280;39838;59.938;30.642;2023-04-21T03:02:25;101192.06;;;5.08;70.18
48926;BME280;39838;59.938;30.642;2023-04-21T03:04:53;101182.09;;;5.17;70.02
48926;BME280;39838;59.938;30.642;2023-04-21T03:07:21;101188.38;;;5.25;68.99
48926;BME280;39838;59.938;30.642;2023-04-21T03:09:48;101189.28;;;5.27;69.73
48926;BME280;39838;59.938;30.642;2023-04-21T03:12:15;101193.00;;;5.35;69.75
48926;BME280;39838;59.938;30.642;2023-04-21T03:14:42;101188.00;;;5.41;69.62
48926;BME280;39838;59.938;30.642;2023-04-21T03:17:10;101189.91;;;5.47;69.02
48926;BME280;39838;59.938;30.642;2023-04-21T03:19:37;101193.56;;;5.54;68.99
48926;BME280;39838;59.938;30.642;2023-04-21T03:22:06;101189.47;;;5.60;69.03
48926;BME280;39838;59.938;30.642;2023-04-21T03:24:33;101196.47;;;5.64;68.36
48926;BME280;39838;59.938;30.642;2023-04-21T03:27:00;101194.00;;;5.67;68.35
48926;BME280;39838;59.938;30.642;2023-04-21T03:29:27;101192.41;;;5.71;68.78
48926;BME280;39838;59.938;30.642;2023-04-21T03:31:55;101190.66;;;5.70;68.83
48926;BME280;39838;59.938;30.642;2023-04-21T03:34:22;101200.22;;;5.74;68.86
48926;BME280;39838;59.938;30.642;2023-04-21T03:36:49;101193.31;;;5.73;68.44
48926;BME280;39838;59.938;30.642;2023-04-21T03:39:18;101195.88;;;5.73;68.44
48926;BME280;39838;59.938;30.642;2023-04-21T03:41:45;101188.25;;;5.76;68.27
48926;BME280;39838;59.938;30.642;2023-04-21T03:44:12;101194.41;;;5.81;68.00
48926;BME280;39838;59.938;30.642;2023-04-21T03:46:40;101203.84;;;5.81;68.57
48926;BME280;39838;59.938;30.642;2023-04-21T03:49:07;101201.38;;;5.84;68.37
48926;BME280;39838;59.938;30.642;2023-04-21T03:51:34;101204.91;;;5.87;68.01
48926;BME280;39838;59.938;30.642;2023-04-21T03:54:01;101198.22;;;5.92;67.82
48926;BME280;39838;59.938;30.642;2023-04-21T03:56:30;101200.16;;;5.99;67.98
48926;BME280;39838;59.938;30.642;2023-04-21T03:58:57;101197.81;;;6.07;67.90
48926;BME280;39838;59.938;30.642;2023-04-21T04:01:24;101203.28;;;6.18;67.38
48926;BME280;39838;59.938;30.642;2023-04-21T04:03:51;101197.50;;;6.26;66.93
48926;BME280;39838;59.938;30.642;2023-04-21T04:06:18;101202.97;;;6.37;66.44
48926;BME280;39838;59.938;30.642;2023-04-21T04:08:45;101192.03;;;6.46;66.65
48926;BME280;39838;59.938;30.642;2023-04-21T04:11:12;101192.97;;;6.49;66.72
48926;BME280;39838;59.938;30.642;2023-04-21T04:13:43;101195.81;;;6.59;66.06
48926;BME280;39838;59.938;30.642;2023-04-21T04:16:11;101189.88;;;6.63;66.30
48926;BME280;39838;59.938;30.642;2023-04-21T04:18:38;101192.53;;;6.64;65.94
48926;BME280;39838;59.938;30.642;2023-04-21T04:21:05;101193.47;;;6.68;65.94
48926;BME280;39838;59.938;30.642;2023-04-21T04:23:33;101189.22;;;6.70;66.40
48926;BME280;39838;59.938;30.642;2023-04-21T04:26:00;101188.47;;;6.74;66.05
48926;BME280;39838;59.938;30.642;2023-04-21T04:28:29;101198.88;;;6.77;66.35
48926;BME280;39838;59.938;30.642;2023-04-21T04:30:58;101186.97;;;6.82;66.31
48926;BME280;39838;59.938;30.642;2023-04-21T04:33:25;101186.31;;;6.91;65.96
48926;BME280;39838;59.938;30.642;2023-04-21T04:35:53;101185.72;;;6.99;66.12
48926;BME280;39838;59.938;30.642;2023-04-21T04:38:20;101176.47;;;7.09;65.49
48926;BME280;39838;59.938;30.642;2023-04-21T04:40:52;101181.91;;;7.20;65.49
48926;BME280;39838;59.938;30.642;2023-04-21T04:43:19;101171.75;;;7.27;65.21
48926;BME280;39838;59.938;30.642;2023-04-21T04:45:47;101176.88;;;7.26;65.08
48926;BME280;39838;59.938;30.642;2023-04-21T04:48:15;101164.81;;;7.25;65.31
48926;BME280;39838;59.938;30.642;2023-04-21T04:50:42;101171.91;;;7.33;65.66
48926;BME280;39838;59.938;30.642;2023-04-21T04:53:10;101163.50;;;7.44;65.71
48926;BME280;39838;59.938;30.642;2023-04-21T04:55:37;101163.78;;;7.56;64.87
48926;BME280;39838;59.938;30.642;2023-04-21T04:58:04;101162.16;;;7.59;64.84
48926;BME280;39838;59.938;30.642;2023-04-21T05:00:31;101165.78;;;7.68;65.08
48926;BME280;39838;59.938;30.642;2023-04-21T05:02:59;101163.56;;;7.84;64.65
48926;BME280;39838;59.938;30.642;2023-04-21T05:05:27;101160.41;;;7.99;64.08
48926;BME280;39838;59.938;30.642;2023-04-21T05:07:54;101158.19;;;8.16;63.83
48926;BME280;39838;59.938;30.642;2023-04-21T05:10:22;101163.69;;;8.33;63.33
48926;BME280;39838;59.938;30.642;2023-04-21T05:12:49;101151.97;;;8.48;62.57
48926;BME280;39838;59.938;30.642;2023-04-21T05:15:16;101157.41;;;8.64;62.36
48926;BME280;39838;59.938;30.642;2023-04-21T05:17:43;101161.13;;;8.78;61.87
48926;BME280;39838;59.938;30.642;2023-04-21T05:20:11;101162.91;;;8.81;61.60
48926;BME280;39838;59.938;30.642;2023-04-21T05:22:40;101165.66;;;8.90;61.19
48926;BME280;39838;59.938;30.642;2023-04-21T05:25:09;101161.59;;;9.06;61.42
48926;BME280;39838;59.938;30.642;2023-04-21T05:27:36;101157.50;;;9.18;60.21
48926;BME280;39838;59.938;30.642;2023-04-21T05:30:04;101170.59;;;9.27;60.35
48926;BME280;39838;59.938;30.642;2023-04-21T05:32:32;101168.25;;;9.43;60.05
48926;BME280;39838;59.938;30.642;2023-04-21T05:34:59;101149.34;;;9.51;59.96
48926;BME280;39838;59.938;30.642;2023-04-21T05:37:26;101162.53;;;9.67;59.38
48926;BME280;39838;59.938;30.642;2023-04-21T05:39:55;101155.84;;;9.82;59.33
48926;BME280;39838;59.938;30.642;2023-04-21T05:42:22;101154.34;;;10.01;58.78
48926;BME280;39838;59.938;30.642;2023-04-21T05:44:49;101154.47;;;10.10;57.87
48926;BME280;39838;59.938;30.642;2023-04-21T05:47:17;101146.72;;;10.12;57.79
48926;BME280;39838;59.938;30.642;2023-04-21T05:49:44;101144.22;;;10.21;57.64
48926;BME280;39838;59.938;30.642;2023-04-21T05:52:15;101140.13;;;10.40;57.90
48926;BME280;39838;59.938;30.642;2023-04-21T05:54:43;101135.94;;;10.54;57.21
48926;BME280;39838;59.938;30.642;2023-04-21T05:57:11;101136.94;;;10.64;56.17
48926;BME280;39838;59.938;30.642;2023-04-21T05:59:38;101140.47;;;10.74;56.40
48926;BME280;39838;59.938;30.642;2023-04-21T06:02:06;101133.59;;;10.77;56.14
48926;BME280;39838;59.938;30.642;2023-04-21T06:04:33;101140.53;;;10.81;55.98
48926;BME280;39838;59.938;30.642;2023-04-21T06:07:04;101138.88;;;10.88;55.90
48926;BME280;39838;59.938;30.642;2023-04-21T06:09:31;101145.91;;;11.00;55.51
48926;BME280;39838;59.938;30.642;2023-04-21T06:11:59;101141.63;;;11.06;55.11
48926;BME280;39838;59.938;30.642;2023-04-21T06:14:27;101137.38;;;11.17;54.68
48926;BME280;39838;59.938;30.642;2023-04-21T06:16:55;101136.59;;;11.29;54.90
48926;BME280;39838;59.938;30.642;2023-04-21T06:19:22;101139.28;;;11.41;54.28
48926;BME280;39838;59.938;30.642;2023-04-21T06:21:49;101138.41;;;11.39;54.12
48926;BME280;39838;59.938;30.642;2023-04-21T06:24:17;101126.28;;;11.40;53.95
48926;BME280;39838;59.938;30.642;2023-04-21T06:26:50;101135.91;;;11.53;53.78
48926;BME280;39838;59.938;30.642;2023-04-21T06:29:18;101136.81;;;11.61;53.55
48926;BME280;39838;59.938;30.642;2023-04-21T06:31:47;101131.59;;;11.61;53.63
48926;BME280;39838;59.938;30.642;2023-04-21T06:34:14;101128.09;;;11.53;53.78
48926;BME280;39838;59.938;30.642;2023-04-21T06:36:42;101128.09;;;11.55;53.70
48926;BME280;39838;59.938;30.642;2023-04-21T06:39:09;101131.59;;;11.64;53.56
48926;BME280;39838;59.938;30.642;2023-04-21T06:41:36;101129.00;;;11.60;53.07
48926;BME280;39838;59.938;30.642;2023-04-21T06:44:03;101135.00;;;11.48;53.36
48926;BME280;39838;59.938;30.642;2023-04-21T06:46:31;101132.38;;;11.46;53.52
48926;BME280;39838;59.938;30.642;2023-04-21T06:48:59;101141.06;;;11.45;53.22
48926;BME280;39838;59.938;30.642;2023-04-21T06:51:26;101131.53;;;11.49;53.19
48926;BME280;39838;59.938;30.642;2023-04-21T06:53:53;101127.22;;;11.53;53.59
48926;BME280;39838;59.938;30.642;2023-04-21T06:56:21;101125.50;;;11.52;52.92
48926;BME280;39838;59.938;30.642;2023-04-21T06:58:48;101129.78;;;11.45;53.32
48926;BME280;39838;59.938;30.642;2023-04-21T07:01:15;101121.94;;;11.43;53.33
48926;BME280;39838;59.938;30.642;2023-04-21T07:03:42;101117.66;;;11.48;53.60
48926;BME280;39838;59.938;30.642;2023-04-21T07:06:11;101120.31;;;11.61;53.10
48926;BME280;39838;59.938;30.642;2023-04-21T07:08:38;101121.22;;;11.70;52.75
48926;BME280;39838;59.938;30.642;2023-04-21T07:11:05;101124.81;;;11.82;52.68
48926;BME280;39838;59.938;30.642;2023-04-21T07:13:33;101117.06;;;11.95;52.32
48926;BME280;39838;59.938;30.642;2023-04-21T07:16:00;101118.81;;;11.99;52.10
48926;BME280;39838;59.938;30.642;2023-04-21T07:18:27;101118.84;;;12.09;51.92
48926;BME280;39838;59.938;30.642;2023-04-21T07:20:54;101118.00;;;12.17;51.66
48926;BME280;39838;59.938;30.642;2023-04-21T07:23:24;101108.50;;;12.27;51.47
48926;BME280;39838;59.938;30.642;2023-04-21T07:25:51;101110.22;;;12.37;51.30
48926;BME280;39838;59.938;30.642;2023-04-21T07:28:18;101115.47;;;12.49;50.47
48926;BME280;39838;59.938;30.642;2023-04-21T07:30:46;101114.63;;;12.55;50.35
48926;BME280;39838;59.938;30.642;2023-04-21T07:33:13;101112.00;;;12.60;49.93
48926;BME280;39838;59.938;30.642;2023-04-21T07:35:41;101105.06;;;12.65;49.68
48926;BME280;39838;59.938;30.642;2023-04-21T07:38:08;101104.19;;;12.73;49.68
48926;BME280;39838;59.938;30.642;2023-04-21T07:40:37;101101.63;;;12.75;49.55
48926;BME280;39838;59.938;30.642;2023-04-21T07:43:04;101110.31;;;12.81;49.44
48926;BME280;39838;59.938;30.642;2023-04-21T07:45:31;101105.06;;;12.86;49.62
48926;BME280;39838;59.938;30.642;2023-04-21T07:47:58;101099.00;;;12.92;49.46
48926;BME280;39838;59.938;30.642;2023-04-21T07:50:25;101097.28;;;12.95;49.62
48926;BME280;39838;59.938;30.642;2023-04-21T07:52:53;101097.28;;;13.01;49.10
48926;BME280;39838;59.938;30.642;2023-04-21T07:55:20;101090.31;;;13.09;48.92
48926;BME280;39838;59.938;30.642;2023-04-21T07:57:49;101090.28;;;13.19;48.93
48926;BME280;39838;59.938;30.642;2023-04-21T08:00:16;101092.91;;;13.26;48.83
48926;BME280;39838;59.938;30.642;2023-04-21T08:02:44;101085.94;;;13.36;48.59
48926;BME280;39838;59.938;30.642;2023-04-21T08:05:11;101080.72;;;13.48;47.82
48926;BME280;39838;59.938;30.642;2023-04-21T08:07:38;101073.69;;;13.58;47.58
48926;BME280;39838;59.938;30.642;2023-04-21T08:10:07;101063.25;;;13.62;47.16
48926;BME280;39838;59.938;30.642;2023-04-21T08:12:34;101070.19;;;13.70;47.03
48926;BME280;39838;59.938;30.642;2023-04-21T08:15:03;101066.69;;;13.71;46.52
48926;BME280;39838;59.938;30.642;2023-04-21T08:17:33;101061.44;;;13.74;46.79
48926;BME280;39838;59.938;30.642;2023-04-21T08:20:01;101066.63;;;13.84;46.29
48926;BME280;39838;59.938;30.642;2023-04-21T08:22:32;101062.28;;;13.86;46.30
48926;BME280;39838;59.938;30.642;2023-04-21T08:25:04;101057.94;;;13.85;46.79
48926;BME280;39838;59.938;30.642;2023-04-21T08:27:32;101065.75;;;13.90;46.07
48926;BME280;39838;59.938;30.642;2023-04-21T08:30:00;101065.72;;;13.91;45.73
48926;BME280;39838;59.938;30.642;2023-04-21T08:32:33;101061.38;;;13.93;45.78
48926;BME280;39838;59.938;30.642;2023-04-21T08:35:00;101053.47;;;14.04;45.77
48926;BME280;39838;59.938;30.642;2023-04-21T08:37:29;101057.81;;;14.10;45.36
48926;BME280;39838;59.938;30.642;2023-04-21T08:39:56;101061.25;;;14.16;45.79
48926;BME280;39838;59.938;30.642;2023-04-21T08:42:24;101070.78;;;14.25;45.46
48926;BME280;39838;59.938;30.642;2023-04-21T08:44:51;101048.09;;;14.29;44.86
48926;BME280;39838;59.938;30.642;2023-04-21T08:47:19;101061.09;;;14.41;45.26
48926;BME280;39838;59.938;30.642;2023-04-21T08:49:50;101061.06;;;14.50;44.88
48926;BME280;39838;59.938;30.642;2023-04-21T08:52:18;101052.31;;;14.57;44.44
48926;BME280;39838;59.938;30.642;2023-04-21T08:54:46;101040.03;;;14.65;44.65
48926;BME280;39838;59.938;30.642;2023-04-21T08:57:16;101041.72;;;14.72;44.15
48926;BME280;39838;59.938;30.642;2023-04-21T08:59:44;101038.97;;;14.86;44.21
48926;BME280;39838;59.938;30.642;2023-04-21T09:02:12;101035.31;;;15.04;44.72
48926;BME280;39838;59.938;30.642;2023-04-21T09:04:41;101035.19;;;15.18;44.16
48926;BME280;39838;59.938;30.642;2023-04-21T09:07:11;101031.63;;;15.25;43.78
48926;BME280;39838;59.938;30.642;2023-04-21T09:09:52;101025.38;;;15.38;43.89
48926;BME280;39838;59.938;30.642;2023-04-21T09:12:19;101023.44;;;15.51;43.70
48926;BME280;39838;59.938;30.642;2023-04-21T09:14:47;101031.34;;;15.48;43.70
48926;BME280;39838;59.938;30.642;2023-04-21T09:17:15;101027.91;;;15.43;43.45
48926;BME280;39838;59.938;30.642;2023-04-21T09:19:43;101027.00;;;15.47;43.57
48926;BME280;39838;59.938;30.642;2023-04-21T09:22:15;101023.34;;;15.62;43.19
48926;BME280;39838;59.938;30.642;2023-04-21T09:24:46;101027.50;;;15.79;43.12
48926;BME280;39838;59.938;30.642;2023-04-21T09:27:14;101028.09;;;16.00;42.87
48926;BME280;39838;59.938;30.642;2023-04-21T09:29:45;101020.81;;;16.19;42.32
48926;BME280;39838;59.938;30.642;2023-04-21T09:32:16;101022.47;;;16.24;41.81
48926;BME280;39838;59.938;30.642;2023-04-21T09:34:44;101018.09;;;16.25;41.50
48926;BME280;39838;59.938;30.642;2023-04-21T09:37:13;101020.66;;;16.29;41.05
48926;BME280;39838;59.938;30.642;2023-04-21T09:39:44;101017.13;;;16.33;41.18
48926;BME280;39838;59.938;30.642;2023-04-21T09:42:12;101020.50;;;16.38;40.67
48926;BME280;39838;59.938;30.642;2023-04-21T09:44:40;101019.50;;;16.49;40.20
48926;BME280;39838;59.938;30.642;2023-04-21T09:47:09;101003.75;;;16.49;40.03
48926;BME280;39838;59.938;30.642;2023-04-21T09:49:38;101004.47;;;16.60;40.18
48926;BME280;39838;59.938;30.642;2023-04-21T09:52:10;101007.91;;;16.62;40.24
48926;BME280;39838;59.938;30.642;2023-04-21T09:54:44;100983.81;;;16.40;40.63
48926;BME280;39838;59.938;30.642;2023-04-21T09:57:19;101007.38;;;16.42;41.12
48926;BME280;39838;59.938;30.642;2023-04-21T09:59:52;101003.22;;;16.28;41.39
48926;BME280;39838;59.938;30.642;2023-04-21T10:02:24;100988.50;;;16.20;41.39
48926;BME280;39838;59.938;30.642;2023-04-21T10:04:52;100998.00;;;16.25;41.28
48926;BME280;39838;59.938;30.642;2023-04-21T10:07:19;100992.63;;;16.34;41.38
48926;BME280;39838;59.938;30.642;2023-04-21T10:09:50;100978.63;;;16.35;41.54
48926;BME280;39838;59.938;30.642;2023-04-21T10:12:18;100993.06;;;16.61;41.40
48926;BME280;39838;59.938;30.642;2023-04-21T10:14:46;100995.63;;;16.64;41.35
48926;BME280;39838;59.938;30.642;2023-04-21T10:17:16;100992.97;;;16.65;41.16
48926;BME280;39838;59.938;30.642;2023-04-21T10:19:50;100966.84;;;16.61;41.10
48926;BME280;39838;59.938;30.642;2023-04-21T10:22:28;100985.94;;;16.71;40.98
48926;BME280;39838;59.938;30.642;2023-04-21T10:24:58;100982.41;;;16.73;40.85
48926;BME280;39838;59.938;30.642;2023-04-21T10:27:33;100984.03;;;16.80;40.66
48926;BME280;39838;59.938;30.642;2023-04-21T10:30:17;100989.38;;;16.74;40.62
48926;BME280;39838;59.938;30.642;2023-04-21T10:32:45;100982.41;;;16.72;40.54
48926;BME280;39838;59.938;30.642;2023-04-21T10:35:14;100976.25;;;16.74;40.75
48926;BME280;39838;59.938;30.642;2023-04-21T10:37:42;100974.28;;;16.85;40.63
48926;BME280;39838;59.938;30.642;2023-04-21T10:40:35;100969.00;;;16.88;40.66
48926;BME280;39838;59.938;30.642;2023-04-21T10:43:03;100968.72;;;17.02;40.64
48926;BME280;39838;59.938;30.642;2023-04-21T10:45:30;100965.81;;;17.17;40.21
48926;BME280;39838;59.938;30.642;2023-04-21T10:47:59;100963.81;;;17.30;40.21
48926;BME280;39838;59.938;30.642;2023-04-21T10:50:29;100960.31;;;17.30;39.84
48926;BME280;39838;59.938;30.642;2023-04-21T10:53:00;100956.16;;;17.18;39.76
48926;BME280;39838;59.938;30.642;2023-04-21T10:55:36;100971.59;;;17.35;39.85
48926;BME280;39838;59.938;30.642;2023-04-21T10:58:05;100954.69;;;17.46;39.61
48926;BME280;39838;59.938;30.642;2023-04-21T11:00:34;100954.53;;;17.54;38.88
48926;BME280;39838;59.938;30.642;2023-04-21T11:03:05;100958.22;;;17.45;39.27
48926;BME280;39838;59.938;30.642;2023-04-21T11:05:34;100961.84;;;17.40;39.41
48926;BME280;39838;59.938;30.642;2023-04-21T11:08:09;100937.53;;;17.30;39.48
48926;BME280;39838;59.938;30.642;2023-04-21T11:10:54;100921.38;;;17.07;39.74
48926;BME280;39838;59.938;30.642;2023-04-21T11:13:23;100938.81;;;17.11;39.93
48926;BME280;39838;59.938;30.642;2023-04-21T11:16:02;100943.28;;;17.06;40.01
48926;BME280;39838;59.938;30.642;2023-04-21T11:18:37;100944.31;;;16.97;40.29
48926;BME280;39838;59.938;30.642;2023-04-21T11:21:11;100932.44;;;16.78;40.18
48926;BME280;39838;59.938;30.642;2023-04-21T11:23:40;100944.09;;;16.61;40.70
48926;BME280;39838;59.938;30.642;2023-04-21T11:26:09;100943.25;;;16.58;40.68
48926;BME280;39838;59.938;30.642;2023-04-21T11:28:36;100942.22;;;16.68;40.71
48926;BME280;39838;59.938;30.642;2023-04-21T11:31:06;100936.00;;;16.75;40.54
48926;BME280;39838;59.938;30.642;2023-04-21T11:33:36;100925.53;;;16.72;40.46
48926;BME280;39838;59.938;30.642;2023-04-21T11:36:04;100930.69;;;16.78;40.33
48926;BME280;39838;59.938;30.642;2023-04-21T11:38:39;100922.63;;;16.89;40.26
48926;BME280;39838;59.938;30.642;2023-04-21T11:41:06;100927.94;;;16.84;40.57
48926;BME280;39838;59.938;30.642;2023-04-21T11:43:37;100925.88;;;17.02;40.12
48926;BME280;39838;59.938;30.642;2023-04-21T11:46:11;100923.75;;;17.19;40.11
48926;BME280;39838;59.938;30.642;2023-04-21T11:48:38;100934.97;;;17.27;39.57
48926;BME280;39838;59.938;30.642;2023-04-21T11:51:13;100920.25;;;17.18;39.74
48926;BME280;39838;59.938;30.642;2023-04-21T11:53:40;100927.28;;;17.18;39.73
48926;BME280;39838;59.938;30.642;2023-04-21T11:56:08;100930.16;;;17.06;39.96
48926;BME280;39838;59.938;30.642;2023-04-21T11:58:38;100919.72;;;17.03;39.99
48926;BME280;39838;59.938;30.642;2023-04-21T12:01:08;100923.13;;;17.08;39.80
48926;BME280;39838;59.938;30.642;2023-04-21T12:03:36;100919.81;;;16.98;39.75
48926;BME280;39838;59.938;30.642;2023-04-21T12:06:03;100924.13;;;17.02;39.67
48926;BME280;39838;59.938;30.642;2023-04-21T12:08:31;100917.81;;;17.11;39.81
48926;BME280;39838;59.938;30.642;2023-04-21T12:10:59;100906.97;;;17.26;39.57
48926;BME280;39838;59.938;30.642;2023-04-21T12:13:28;100910.25;;;17.37;39.51
48926;BME280;39838;59.938;30.642;2023-04-21T12:15:57;100906.38;;;17.54;39.21
48926;BME280;39838;59.938;30.642;2023-04-21T12:18:30;100900.97;;;17.61;38.99
48926;BME280;39838;59.938;30.642;2023-04-21T12:21:00;100910.41;;;17.71;39.05
48926;BME280;39838;59.938;30.642;2023-04-21T12:23:28;100904.19;;;17.74;38.83
48926;BME280;39838;59.938;30.642;2023-04-21T12:25:56;100901.44;;;17.80;39.04
48926;BME280;39838;59.938;30.642;2023-04-21T12:28:23;100893.25;;;17.92;38.80
48926;BME280;39838;59.938;30.642;2023-04-21T12:30:50;100901.63;;;18.10;38.67
48926;BME280;39838;59.938;30.642;2023-04-21T12:33:19;100899.34;;;18.30;38.48
48926;BME280;39838;59.938;30.642;2023-04-21T12:35:46;100901.91;;;18.66;38.00
48926;BME280;39838;59.938;30.642;2023-04-21T12:38:14;100887.44;;;18.82;37.62
48926;BME280;39838;59.938;30.642;2023-04-21T12:40:41;100880.97;;;18.94;37.25
48926;BME280;39838;59.938;30.642;2023-04-21T12:43:08;100885.47;;;18.90;37.32
48926;BME280;39838;59.938;30.642;2023-04-21T12:45:35;100883.50;;;18.98;37.05
48926;BME280;39838;59.938;30.642;2023-04-21T12:48:03;100888.41;;;19.11;36.81
48926;BME280;39838;59.938;30.642;2023-04-21T12:50:31;100888.13;;;18.90;36.84